Tiempo atmosférico en la estación meteorológica de Castell Del Ferro, Granada (235 m.)

Fecha
DESCASC
Temp. máxima en grados centígrados (hora)
DESCASC
Temp. mínima en grados centígrados (hora)
DESCASC
Temp. media en grados centígrados
DESCASC
Racha de viento máxima en m/sg (hora)
DESCASC
Velocidad máxima media en intervalos de 10 minutos(hora)
DESCASC
Precipitaciones diarias en mm
DESCASC
Precipitaciones de 00:00 a 06:00 en mm
DESCASC
Precipitaciones de 06:00 a 12:00 en mm
DESCASC
Precipitaciones de 12:00 a 18:00 en mm
DESCASC
Precipitaciones de 18:00 a 24:00 en mm
DESCASC

Gráficas

Temp. máximas Temp. mínimas Temp. medias Precipitaciones Rachas de viento máximas Velocidades máximas media en intervalos de 10 minutos

Datos horarios

Fecha y hora oficial Temperatura (ºC) Velocidad del viento (km/h) Dirección del viento Racha (km/h) Dirección de racha Precipitación (mm) Presión (hPa) Tendencia (hPa) Humedad (%)
2017-10-22 23:00:00 18.8 2 Sur 8 Sur 0 -- -- 91
2017-10-22 22:00:00 18 3 Sur 6 Sur 0 -- -- 84
2017-10-22 21:00:00 18.5 0 Calma 6 Este 0 -- -- 83
2017-10-22 20:00:00 19.2 4 Sudeste 7 Sudeste 0 -- -- 81
2017-10-22 19:00:00 19.9 4 Sur 8 Este 0 -- -- 74
2017-10-22 18:00:00 21.5 6 Este 13 Este 0 -- -- 63
2017-10-22 17:00:00 23.5 9 Sudeste 16 Sudeste 0 -- -- 54
2017-10-22 16:00:00 25.2 7 Sudeste 11 Este 0 -- -- 49
2017-10-22 15:00:00 25.3 5 Sudeste 10 Sudeste 0 -- -- 49
2017-10-22 14:00:00 23.6 5 Este 12 Sudeste 0 -- -- 63
2017-10-22 13:00:00 23.7 9 Sudeste 12 Sudeste 0 -- -- 63
2017-10-22 12:00:00 24.2 5 Este 7 Sudeste 0 -- -- 59
2017-10-22 11:00:00 23.2 3 Este 4 Este 0 -- -- 59
2017-10-22 10:00:00 21.7 2 Sudeste 3 Sudeste 0 -- -- 63
2017-10-22 09:00:00 18 3 Oeste 4 Oeste 0 -- -- 71
2017-10-22 08:00:00 17.9 3 Noroeste 4 Noroeste 0 -- -- 69
2017-10-22 07:00:00 17.5 3 Oeste 5 Oeste 0 -- -- 71
2017-10-22 06:00:00 17.2 0 Calma 5 Sur 0 -- -- 76
2017-10-22 05:00:00 17.5 4 Sur 6 Sur 0 -- -- 75
2017-10-22 04:00:00 18.1 3 Oeste 5 Oeste 0 -- -- 73
2017-10-22 03:00:00 17.7 0 Calma 6 Sudoeste 0 -- -- 77
2017-10-22 02:00:00 17.2 0 Calma 3 Sudoeste 0 -- -- 81
2017-10-22 01:00:00 17.6 0 Calma 5 Sudeste 0 -- -- 79
2017-10-22 00:00:00 18.1 5 Oeste 6 Oeste 0 -- -- 77
2017-10-21 23:00:00 17.6 2 Sudoeste 8 Oeste 0 -- -- 77
2017-10-21 22:00:00 17.6 0 Calma 6 Sur 0 -- -- 82
2017-10-21 21:00:00 18.2 5 Oeste 7 Oeste 0 -- -- 80
2017-10-21 20:00:00 18.4 0 Calma 4 Noroeste 0 -- -- 85
2017-10-21 19:00:00 19.3 2 Noroeste 4 Noroeste 0 -- -- 84
2017-10-21 18:00:00 21.1 2 Sudeste 7 Sudeste 0 -- -- 75
2017-10-21 17:00:00 22.9 3 Este 11 Este 0 -- -- 66
2017-10-21 16:00:00 22.8 6 Este 13 Este 0 -- -- 68
2017-10-21 15:00:00 22.6 9 Este 16 Sudeste 0 -- -- 64
2017-10-21 14:00:00 22.1 12 Sudeste 15 Sudeste 0 -- -- 62
2017-10-21 13:00:00 22.6 9 Este 18 Este 0 -- -- 69
2017-10-21 12:00:00 23.5 8 Sudeste 11 Sudeste 0 -- -- 55
2017-10-21 11:00:00 22.9 4 Este 6 Este 0 -- -- 57
2017-10-21 10:00:00 21.5 4 Este 10 Sur 0 -- -- 56
2017-10-21 09:00:00 18.5 0 Calma 6 Sudoeste 0 -- -- 64
2017-10-21 08:00:00 17.2 2 Sudoeste 7 Sur 0 -- -- 67
2017-10-21 07:00:00 17.2 2 Sur 4 Sudoeste 0 -- -- 65
2017-10-21 06:00:00 17.6 0 Calma 6 Sudoeste 0 -- -- 63
2017-10-21 05:00:00 17.3 3 Oeste 5 Sur 0 -- -- 65
2017-10-21 04:00:00 17 3 Sur 6 Sur 0 -- -- 65
2017-10-21 03:00:00 17.5 2 Sudoeste 7 Sur 0 -- -- 65
2017-10-21 02:00:00 18.4 6 Sur 14 Sur 0 -- -- 61
2017-10-21 01:00:00 19.3 4 Oeste 7 Sudoeste 0 -- -- 54
2017-10-21 00:00:00 19.3 5 Oeste 8 Oeste 0 -- -- 55
2017-10-20 23:00:00 18.5 0 Calma 5 Sudoeste 0 -- -- 58
2017-10-20 22:00:00 18.8 2 Sur 9 Sur 0 -- -- 55
2017-10-20 21:00:00 18.6 0 Calma 4 Sudoeste 0 -- -- 58
2017-10-20 20:00:00 18.8 2 Oeste 8 Oeste 0 -- -- 60
2017-10-20 19:00:00 20.1 2 Oeste 6 Oeste 0 -- -- 58
2017-10-20 18:00:00 22.5 0 Calma 13 Sudeste 0 -- -- 53
2017-10-20 17:00:00 24.5 7 Sudeste 14 Este 0 -- -- 43
2017-10-20 16:00:00 24.6 8 Sudeste 14 Sudeste 0 -- -- 41
2017-10-20 15:00:00 24.4 9 Sudeste 17 Sudeste 0 -- -- 45
2017-10-20 14:00:00 24.9 4 Este 16 Sudeste 0 -- -- 39
2017-10-20 13:00:00 24.5 6 Sudeste 15 Sudeste 0 -- -- 40
2017-10-20 12:00:00 24.7 7 Este 15 Sudeste 0 -- -- 43
2017-10-20 11:00:00 23.6 3 Este 6 Este 0 -- -- 44
2017-10-20 10:00:00 21.1 3 Noroeste 10 Oeste 0 -- -- 50
2017-10-20 09:00:00 18.4 6 Oeste 12 Oeste 0 -- -- 55
2017-10-20 08:00:00 17.2 6 Oeste 9 Oeste 0 -- -- 57
2017-10-20 07:00:00 17.5 5 Sudeste 18 Oeste 0 -- -- 56
2017-10-20 06:00:00 17.8 3 Oeste 8 Oeste 0 -- -- 54
2017-10-20 05:00:00 17.8 7 Sudoeste 10 Oeste 0 -- -- 54
2017-10-20 04:00:00 18.1 3 Oeste 15 Oeste 0 -- -- 53
2017-10-20 03:00:00 17.7 11 Oeste 14 Oeste 0 -- -- 55
2017-10-20 02:00:00 17.7 4 Oeste 22 Oeste 0 -- -- 57
2017-10-20 01:00:00 18.9 13 Oeste 27 Oeste 0 -- -- 50
2017-10-20 00:00:00 19.5 19 Oeste 36 Oeste 0 -- -- 50
2017-10-19 23:00:00 19.4 14 Oeste 47 Noroeste 0 -- -- 45
2017-10-19 22:00:00 19.3 34 Noroeste 49 Noroeste 0 -- -- 50
2017-10-19 21:00:00 19 33 Oeste 54 Noroeste 0 -- -- 51
2017-10-19 20:00:00 19.4 36 Oeste 62 Oeste 0 -- -- 50
2017-10-19 19:00:00 19.9 29 Oeste 51 Oeste 0 -- -- 50
2017-10-19 18:00:00 20.5 23 Noroeste 37 Noroeste 0 -- -- 50
2017-10-19 17:00:00 20.3 26 Noroeste 50 Noroeste 0 -- -- 56
2017-10-19 16:00:00 19.6 21 Oeste 39 Sudoeste 0 -- -- 86
2017-10-19 15:00:00 18.1 20 Oeste 33 Sudoeste 0 -- -- 85
2017-10-19 14:00:00 19.1 6 Sudeste 12 Nordeste 0 -- -- 88
2017-10-19 13:00:00 17.9 8 Nordeste 18 Nordeste 0 -- -- 93
2017-10-19 12:00:00 16.9 4 Este 8 Sudoeste 0 -- -- 99
2017-10-19 11:00:00 15.1 0 Calma 7 Sudoeste 0 -- -- 99
2017-10-19 10:00:00 14 6 Sudoeste 10 Sudoeste 0 -- -- 99
2017-10-19 09:00:00 13.5 7 Sur 16 Sudoeste 1 -- -- 98
2017-10-19 08:00:00 13.5 4 Oeste 15 Noroeste 4.2 -- -- 98
2017-10-19 07:00:00 13.7 2 Sudeste 20 Oeste 6.2 -- -- 98
2017-10-19 06:00:00 14.2 4 Nordeste 35 Oeste 1.6 -- -- 97
2017-10-19 05:00:00 14.5 5 Norte 29 Noroeste 1.4 -- -- 94
2017-10-19 04:00:00 15.2 21 Oeste 34 Oeste 2.8 -- -- 94
2017-10-19 03:00:00 15.6 21 Oeste 39 Oeste 0.4 -- -- 94
2017-10-19 02:00:00 15.6 26 Oeste 36 Oeste 2 -- -- 93
2017-10-19 01:00:00 16.2 19 Oeste 39 Oeste 1.8 -- -- 97
2017-10-19 00:00:00 16.3 14 Oeste 31 Oeste 1.2 -- -- 98
2017-10-18 23:00:00 16.3 17 Noroeste 41 Oeste 18.6 -- -- 98
2017-10-18 22:00:00 16.7 20 Oeste 45 Oeste 1.8 -- -- 94
2017-10-18 21:00:00 16.8 32 Oeste 48 Oeste 0 -- -- 90
2017-10-18 20:00:00 16.6 25 Oeste 42 Oeste 1.8 -- -- 92
2017-10-18 19:00:00 16.9 21 Oeste 42 Oeste 0 -- -- 95
2017-10-18 18:00:00 17 17 Oeste 28 Noroeste 0 -- -- 97
2017-10-18 17:00:00 17.2 14 Oeste 34 Noroeste 0.2 -- -- 97
2017-10-18 16:00:00 16.6 18 Oeste 37 Oeste 0.4 -- -- 98
2017-10-18 15:00:00 16.4 9 Oeste 24 Oeste 4.6 -- -- 98
2017-10-18 14:00:00 17.6 5 Este 13 Noroeste 0.4 -- -- 98
2017-10-18 13:00:00 17.1 3 Norte 20 Sur 0 -- -- 98
2017-10-18 12:00:00 16.6 13 Sur 29 Noroeste 0.2 -- -- 97
2017-10-18 11:00:00 15.5 23 Noroeste 52 Oeste 10.8 -- -- 94
2017-10-18 10:00:00 15.3 42 Noroeste 57 Oeste 6.2 -- -- 86
2017-10-18 09:00:00 18.5 5 Sur 8 Sudeste 0 -- -- 78
2017-10-18 08:00:00 18.1 2 Sudeste 5 Sudoeste 0 -- -- 82
2017-10-18 07:00:00 18.1 3 Sur 10 Oeste 0 -- -- 76
2017-10-18 06:00:00 18.1 7 Oeste 10 Oeste 0 -- -- 81
2017-10-18 05:00:00 17.9 4 Sur 7 Sur 0 -- -- 81
2017-10-18 04:00:00 18.4 4 Oeste 8 Oeste 0 -- -- 78
2017-10-18 03:00:00 18.4 2 Oeste 12 Sur 0 -- -- 81
2017-10-18 02:00:00 18.3 7 Oeste 11 Oeste 0 -- -- 85
2017-10-18 01:00:00 18.2 2 Sur 13 Sur 0 -- -- 85
2017-10-18 00:00:00 18.6 0 Calma 8 Sudoeste 0 -- -- 82
2017-10-17 23:00:00 18.9 3 Sur 6 Sur 0 -- -- 81
2017-10-17 22:00:00 19.2 0 Calma 8 Noroeste 0 -- -- 80
2017-10-17 21:00:00 19.3 0 Calma 8 Sudoeste 0 -- -- 78
2017-10-17 20:00:00 19.5 2 Sudoeste 6 Sur 0 -- -- 77
2017-10-17 19:00:00 19.9 0 Calma 11 Sudeste 0 -- -- 75
2017-10-17 18:00:00 20.6 2 Sudeste 9 Este 0 -- -- 72
2017-10-17 17:00:00 20.9 4 Sudeste 9 Sudeste 0 -- -- 71
2017-10-17 16:00:00 21.2 3 Este 10 Este 0 -- -- 70
2017-10-17 15:00:00 20.7 5 Este 14 Este 0 -- -- 75
2017-10-17 14:00:00 21.3 4 Este 10 Sudeste 0 -- -- 72
2017-10-17 13:00:00 20.8 5 Este 13 Este 0 -- -- 78
2017-10-17 12:00:00 20.8 7 Este 14 Sudeste 0 -- -- 80
2017-10-17 11:00:00 19.9 5 Sur 13 Sudeste 0 -- -- 80
2017-10-17 10:00:00 19.8 0 Calma 5 Oeste 0 -- -- 80
2017-10-17 09:00:00 18.6 0 Calma 7 Oeste 0 -- -- 86
2017-10-17 08:00:00 17.8 3 Sudoeste 4 Oeste 0 -- -- 90
2017-10-17 07:00:00 18 2 Sudoeste 5 Sudoeste 0 -- -- 89
2017-10-17 06:00:00 18.8 3 Sudoeste 4 Sur 0 -- -- 90
2017-10-17 05:00:00 19.1 3 Sudoeste 5 Sudeste 0 -- -- 88
2017-10-17 04:00:00 19.3 3 Sur 5 Sudoeste 0 -- -- 87
2017-10-17 03:00:00 19.6 0 Calma 5 Sudeste 0 -- -- 87
2017-10-17 02:00:00 19.9 0 Calma 5 Este 0 -- -- 85
2017-10-17 01:00:00 19.9 3 Sur 6 Sudeste 0 -- -- 84
2017-10-17 00:00:00 19.8 4 Este 6 Nordeste 0 -- -- 84
2017-10-16 23:00:00 19.4 0 Calma 4 Sudeste 0 -- -- 84
2017-10-16 22:00:00 18.7 3 Sudeste 5 Sudeste 0 -- -- 85
2017-10-16 21:00:00 19 0 Calma 4 Sudoeste 0 -- -- 83
2017-10-16 20:00:00 19 2 Sudoeste 5 Sudeste 0 -- -- 82
2017-10-16 19:00:00 20.4 3 Sudeste 12 Sudeste 0 -- -- 79
2017-10-16 18:00:00 20.9 5 Este 18 Sudeste 0 -- -- 78
2017-10-16 17:00:00 22.5 10 Sudeste 15 Sudeste 0 -- -- 70
2017-10-16 16:00:00 22.8 10 Sudeste 19 Sudeste 0 -- -- 67
2017-10-16 15:00:00 23.4 10 Este 22 Este 0 -- -- 61
2017-10-16 14:00:00 22.7 14 Sudeste 21 Sudeste 0 -- -- 60
2017-10-16 13:00:00 23.3 13 Sudeste 23 Sudeste 0 -- -- 56
2017-10-16 12:00:00 24 11 Sudeste 18 Sudeste 0 -- -- 58
2017-10-16 11:00:00 23 6 Sudoeste 15 Oeste 0 -- -- 67
2017-10-16 10:00:00 21.6 4 Nordeste 7 Nordeste 0 -- -- 64
2017-10-16 09:00:00 18.5 0 Calma 6 Sudeste 0 -- -- 73
2017-10-16 08:00:00 18.2 4 Sur 10 Sur 0 -- -- 70
2017-10-16 07:00:00 18 3 Sur 5 Sur 0 -- -- 70
2017-10-16 06:00:00 18.3 0 Calma 6 Sudeste 0 -- -- 70
2017-10-16 05:00:00 19.8 4 Sur 10 Sudoeste 0 -- -- 69
2017-10-16 04:00:00 18.4 0 Calma 6 Oeste 0 -- -- 85
2017-10-16 03:00:00 18.8 4 Sur 12 Sudoeste 0 -- -- 86
2017-10-16 02:00:00 18.7 3 Sur 10 Sudoeste 0 -- -- 85
2017-10-16 01:00:00 19.5 8 Sudoeste 15 Sur 0 -- -- 83
2017-10-16 00:00:00 19.4 10 Sur 16 Sur 0 -- -- 91
2017-10-15 23:00:00 19.5 7 Sur 11 Sudeste 0 -- -- 90
2017-10-15 22:00:00 20.1 7 Sur 13 Sudeste 0 -- -- 87
2017-10-15 21:00:00 20.4 2 Sudeste 7 Sudoeste 0 -- -- 79
2017-10-15 20:00:00 20.7 4 Sur 12 Sudeste 0 -- -- 80
2017-10-15 19:00:00 22.2 3 Sur 16 Oeste 0 -- -- 70
2017-10-15 18:00:00 25 3 Sudoeste 13 Este 0 -- -- 59
2017-10-15 17:00:00 25.9 5 Sudeste 17 Sudeste 0 -- -- 55
2017-10-15 16:00:00 25.6 6 Sudeste 19 Este 0 -- -- 56
2017-10-15 15:00:00 25.6 11 Sudeste 20 Sudeste 0 -- -- 52
2017-10-15 14:00:00 25.1 11 Sudeste 17 Sudeste 0 -- -- 53
2017-10-15 13:00:00 25.3 10 Sudeste 15 Sudeste 0 -- -- 53
2017-10-15 12:00:00 27.2 8 Este 13 Este 0 -- -- 43
2017-10-15 11:00:00 27.8 6 Sudeste 12 Sudeste 0 -- -- 29
2017-10-15 10:00:00 26.7 5 Este 11 Sudeste 0 -- -- 29
2017-10-15 09:00:00 23.2 2 Sur 10 Sudeste 0 -- -- 38
2017-10-15 08:00:00 22.5 5 Oeste 9 Oeste 0 -- -- 41
2017-10-15 07:00:00 21.5 3 Sudoeste 5 Oeste 0 -- -- 46
2017-10-15 06:00:00 19.9 0 Calma 5 Sudeste 0 -- -- 51
2017-10-15 05:00:00 21.4 0 Calma 6 Oeste 0 -- -- 52
2017-10-15 04:00:00 21.8 3 Oeste 11 Oeste 0 -- -- 54
2017-10-15 03:00:00 19.4 5 Oeste 8 Oeste 0 -- -- 79
2017-10-15 02:00:00 19.9 3 Sudeste 5 Sur 0 -- -- 77
2017-10-15 01:00:00 20.2 3 Sudoeste 9 Oeste 0 -- -- 76
2017-10-15 00:00:00 20.3 4 Noroeste 12 Oeste 0 -- -- 75
2017-10-14 23:00:00 21.7 4 Sur 19 Sur 0 -- -- 68
2017-10-14 22:00:00 22.2 4 Oeste 7 Oeste 0 -- -- 56
2017-10-14 21:00:00 22.6 4 Oeste 13 Oeste 0 -- -- 54
2017-10-14 20:00:00 20.7 3 Oeste 17 Oeste 0 -- -- 75
2017-10-14 19:00:00 22.1 10 Sur 27 Sudeste 0.6 -- -- 74
2017-10-14 18:00:00 23.5 3 Sudoeste 10 Oeste 0 -- -- 61
2017-10-14 17:00:00 24 3 Sudeste 11 Este 0 -- -- 65
2017-10-14 16:00:00 25.4 6 Sudeste 15 Sudeste 0 -- -- 51
2017-10-14 15:00:00 24 8 Sudeste 14 Sudeste 0 -- -- 51
2017-10-14 14:00:00 27.9 10 Sudeste 15 Sudeste 0 -- -- 30
2017-10-14 13:00:00 28.4 8 Este 15 Sudeste 0 -- -- 27
2017-10-14 12:00:00 27.6 7 Sudeste 14 Sudeste 0 -- -- 25
2017-10-14 11:00:00 26.5 4 Este 13 Sudeste 0 -- -- 30
2017-10-14 10:00:00 23.4 2 Sudeste 9 Sudeste 0 -- -- 40
2017-10-14 09:00:00 22.4 4 Sur 9 Sudoeste 0 -- -- 34
2017-10-14 08:00:00 21.5 4 Oeste 13 Sudoeste 0 -- -- 37
2017-10-14 07:00:00 21.7 4 Sur 9 Oeste 0 -- -- 46
2017-10-14 06:00:00 21.6 5 Sur 9 Sur 0 -- -- 47
2017-10-14 05:00:00 23.4 4 Sur 12 Oeste 0 -- -- 32
2017-10-14 04:00:00 23.5 7 Oeste 14 Oeste 0 -- -- 33
2017-10-14 03:00:00 22.6 5 Sudoeste 14 Sur 0 -- -- 41
2017-10-14 02:00:00 21.5 3 Noroeste 10 Sudeste 0 -- -- 49
2017-10-14 01:00:00 23.6 6 Sudoeste 14 Oeste 0 -- -- 34
2017-10-14 00:00:00 22.2 6 Oeste 18 Sur 0 -- -- 42
2017-10-13 23:00:00 22.4 2 Oeste 12 Oeste 0 -- -- 50
2017-10-13 22:00:00 25.8 10 Oeste 18 Sudoeste 0 -- -- 28
2017-10-13 21:00:00 24.7 8 Oeste 11 Oeste 0 -- -- 26
2017-10-13 20:00:00 22.6 4 Sudoeste 16 Oeste 0 -- -- 48
2017-10-13 19:00:00 25.1 8 Sudeste 14 Sudeste 0 -- -- 48
2017-10-13 18:00:00 25.5 4 Sudeste 14 Oeste 0 -- -- 44
2017-10-13 17:00:00 26.3 9 Sudeste 12 Sudeste 0 -- -- 46
2017-10-13 16:00:00 28 3 Sudeste 13 Este 0 -- -- 40
2017-10-13 15:00:00 25.8 11 Sudeste 24 Sudeste 0 -- -- 47
2017-10-13 14:00:00 28.8 5 Este 19 Sudeste 0 -- -- 26
2017-10-13 13:00:00 27.2 4 Oeste 18 Sudeste 0 -- -- 23
2017-10-13 12:00:00 28.2 9 Sudeste 17 Este 0 -- -- 23
2017-10-13 11:00:00 27.2 8 Sudeste 12 Sudeste 0 -- -- 26
2017-10-13 10:00:00 28 3 Este 7 Noroeste 0 -- -- 24
2017-10-13 09:00:00 23.9 0 Calma 8 Sudoeste 0 -- -- 35
2017-10-13 08:00:00 22.9 3 Oeste 8 Oeste 0 -- -- 33
2017-10-13 07:00:00 22.7 3 Oeste 6 Oeste 0 -- -- 35
2017-10-13 06:00:00 22 2 Sudoeste 6 Sudoeste 0 -- -- 38
2017-10-13 05:00:00 21.1 3 Sudeste 9 Sur 0 -- -- 44
2017-10-13 04:00:00 20.2 5 Sur 7 Sudeste 0 -- -- 60
2017-10-13 03:00:00 20 2 Sudoeste 8 Sur 0 -- -- 75
2017-10-13 02:00:00 20.3 3 Sur 15 Sudeste 0 -- -- 73
2017-10-13 01:00:00 21.6 9 Sur 15 Sur 0 -- -- 65
2017-10-13 00:00:00 24.3 5 Oeste 10 Oeste 0 -- -- 36
2017-10-12 23:00:00 24.5 3 Oeste 15 Oeste 0 -- -- 32
2017-10-12 22:00:00 24.3 3 Noroeste 8 Noroeste 0 -- -- 31
2017-10-12 21:00:00 23.2 0 Calma 6 Oeste 0 -- -- 32
2017-10-12 20:00:00 23.6 3 Noroeste 6 Sudoeste 0 -- -- 29
2017-10-12 19:00:00 24.5 4 Oeste 12 Sur 0 -- -- 28
2017-10-12 18:00:00 26.6 0 Calma 12 Sudeste 0 -- -- 33
2017-10-12 17:00:00 25.4 11 Sudeste 18 Sudeste 0 -- -- 56
2017-10-12 16:00:00 25.2 7 Sudeste 12 Sudeste 0 -- -- 54
2017-10-12 15:00:00 23.9 7 Sur 17 Sudeste 0 -- -- 47
2017-10-12 14:00:00 25.8 2 Nordeste 9 Este 0 -- -- 43
2017-10-12 13:00:00 26.2 5 Este 10 Este 0 -- -- 46
2017-10-12 12:00:00 22.2 10 Sudeste 18 Sudeste 0 -- -- 72
2017-10-12 11:00:00 24.2 8 Sudeste 11 Sudeste 0 -- -- 65
2017-10-12 10:00:00 22.7 4 Sudeste 8 Noroeste 0 -- -- 52
2017-10-12 09:00:00 18.7 0 Calma 5 Sudeste 0 -- -- 66
2017-10-12 08:00:00 19.1 0 Calma 9 Oeste 0 -- -- 46
2017-10-12 07:00:00 18.8 0 Calma 10 Oeste 0 -- -- 74
2017-10-12 06:00:00 17.9 0 Calma 6 Noroeste 0 -- -- 81
2017-10-12 05:00:00 18.6 5 Oeste 10 Oeste 0 -- -- 83
2017-10-12 04:00:00 18.7 4 Noroeste 7 Oeste 0 -- -- 79
2017-10-12 03:00:00 19.7 3 Sudoeste 9 Oeste 0 -- -- 50
2017-10-12 02:00:00 21.4 5 Sur 12 Oeste 0 -- -- 49
2017-10-12 01:00:00 19.5 3 Oeste 7 Noroeste 0 -- -- 57
2017-10-12 00:00:00 18.6 3 Oeste 12 Oeste 0 -- -- 87
2017-10-11 23:00:00 18.8 8 Noroeste 11 Oeste 0 -- -- 87
2017-10-11 22:00:00 19.1 3 Sudeste 5 Este 0 -- -- 76
2017-10-11 21:00:00 19.4 3 Noroeste 6 Oeste 0 -- -- 81
2017-10-11 20:00:00 19.7 3 Oeste 6 Oeste 0 -- -- 85
2017-10-11 19:00:00 21.1 0 Calma 7 Sudeste 0 -- -- 81
2017-10-11 18:00:00 22.3 6 Sudeste 13 Sudeste 0 -- -- 77
2017-10-11 17:00:00 23.3 7 Sudeste 15 Sudeste 0 -- -- 74
2017-10-11 16:00:00 24.3 7 Sudeste 15 Sudeste 0 -- -- 68
2017-10-11 15:00:00 23.6 10 Sudeste 18 Sudeste 0 -- -- 69
2017-10-11 14:00:00 23.5 9 Este 18 Sudeste 0 -- -- 72
2017-10-11 13:00:00 23.6 9 Sudeste 14 Sudeste 0 -- -- 72
2017-10-11 12:00:00 23.8 8 Sudeste 14 Sudeste 0 -- -- 72
2017-10-11 11:00:00 23.6 4 Este 9 Este 0 -- -- 71
2017-10-11 10:00:00 21.3 3 Este 8 Sudeste 0 -- -- 83
2017-10-11 09:00:00 18.9 2 Noroeste 6 Sudeste 0 -- -- 95
2017-10-11 08:00:00 17.9 2 Sur 6 Oeste 0 -- -- 92
2017-10-11 07:00:00 17.8 0 Calma 5 Sur 0 -- -- 92
2017-10-11 06:00:00 17.8 2 Sur 5 Sudoeste 0 -- -- 91
2017-10-11 05:00:00 18.2 0 Calma 6 Sudoeste 0 -- -- 91
2017-10-11 04:00:00 18.2 4 Sudoeste 7 Oeste 0 -- -- 91
2017-10-11 03:00:00 17.9 2 Sudoeste 4 Sur 0 -- -- 93
2017-10-11 02:00:00 18 4 Sur 5 Sur 0 -- -- 94
2017-10-11 01:00:00 18.3 0 Calma 5 Sur 0 -- -- 94
2017-10-11 00:00:00 18.2 0 Calma 8 Sur 0 -- -- 87
2017-10-10 23:00:00 18.5 5 Sur 6 Sur 0 -- -- 71
2017-10-10 22:00:00 18.9 4 Oeste 8 Sur 0 -- -- 69
2017-10-10 21:00:00 19.4 5 Sur 8 Sur 0 -- -- 81
2017-10-10 20:00:00 20 2 Sur 6 Sur 0 -- -- 79
2017-10-10 19:00:00 21.2 3 Sur 6 Sur 0 -- -- 74
2017-10-10 18:00:00 22.6 5 Sur 13 Sudeste 0 -- -- 59
2017-10-10 17:00:00 23.3 6 Sudeste 15 Sudeste 0 -- -- 68
2017-10-10 16:00:00 23.3 9 Sudeste 16 Este 0 -- -- 60
2017-10-10 15:00:00 22.8 11 Sudeste 19 Sudeste 0 -- -- 62
2017-10-10 14:00:00 23 11 Este 19 Este 0 -- -- 73
2017-10-10 13:00:00 23.3 10 Sudeste 17 Sudeste 0 -- -- 72
2017-10-10 12:00:00 22.7 9 Sudeste 16 Sudeste 0 -- -- 69
2017-10-10 11:00:00 22.6 6 Sudeste 14 Este 0 -- -- 61
2017-10-10 10:00:00 22 8 Sudeste 11 Sudeste 0 -- -- 59
2017-10-10 09:00:00 19.8 2 Noroeste 9 Oeste 0 -- -- 65
2017-10-10 08:00:00 18.3 4 Oeste 7 Oeste 0 -- -- 69
2017-10-10 07:00:00 17.8 3 Oeste 6 Oeste 0 -- -- 79
2017-10-10 06:00:00 17.4 0 Calma -- -- 0 -- -- 84
2017-10-10 05:00:00 17.5 0 Calma 4 Sur 0 -- -- 83
2017-10-10 04:00:00 17.9 0 Calma -- -- 0 -- -- 83
2017-10-10 03:00:00 18 0 Calma 3 Oeste 0 -- -- 84
2017-10-10 02:00:00 18.3 0 Calma 4 Sur 0 -- -- 84
2017-10-10 01:00:00 18.6 0 Calma 5 Sudeste 0 -- -- 84
2017-10-10 00:00:00 18.7 0 Calma 6 Oeste 0 -- -- 84
2017-10-09 23:00:00 18.6 4 Oeste 5 Oeste 0 -- -- 83
2017-10-09 22:00:00 18.8 0 Calma 2 Oeste 0 -- -- 84
2017-10-09 21:00:00 19.2 0 Calma 4 Noroeste 0 -- -- 83
2017-10-09 20:00:00 19.8 3 Noroeste 5 Noroeste 0 -- -- 83
2017-10-09 19:00:00 21.3 0 Calma 6 Nordeste 0 -- -- 79
2017-10-09 18:00:00 23.8 5 Nordeste 12 Nordeste 0 -- -- 71
2017-10-09 17:00:00 24.5 6 Nordeste 18 Nordeste 0 -- -- 68
2017-10-09 16:00:00 25.2 8 Sur 20 Sudeste 0 -- -- 60
2017-10-09 15:00:00 24.5 14 Este 24 Sudeste 0 -- -- 62
2017-10-09 14:00:00 25.1 11 Sudeste 20 Este 0 -- -- 55
2017-10-09 13:00:00 24.4 11 Este 18 Este 0 -- -- 59
2017-10-09 12:00:00 23.8 9 Sudeste 14 Sudeste 0 -- -- 67
2017-10-09 11:00:00 24 7 Este 11 Este 0 -- -- 62
2017-10-09 10:00:00 21.8 4 Nordeste 8 Nordeste 0 -- -- 69
2017-10-09 09:00:00 18.8 0 Calma 6 Oeste 0 -- -- 82
2017-10-09 08:00:00 17.6 4 Oeste 9 Oeste 0 -- -- 84
2017-10-09 07:00:00 17.7 2 Noroeste 9 Sudoeste 0 -- -- 84
2017-10-09 06:00:00 17.8 4 Sudoeste 6 Sudoeste 0 -- -- 83
2017-10-09 05:00:00 17.6 3 Sur 5 Oeste 0 -- -- 88
2017-10-09 04:00:00 17.7 3 Sudoeste 7 Oeste 0 -- -- 88
2017-10-09 03:00:00 17.8 0 Calma 4 Sur 0 -- -- 92
2017-10-09 02:00:00 17.8 2 Sur 4 Sudoeste 0 -- -- 88
2017-10-09 01:00:00 18.1 0 Calma 4 Sudoeste 0 -- -- 87
2017-10-09 00:00:00 18.2 3 Sudoeste 5 Sudoeste 0 -- -- 86
2017-10-08 23:00:00 18.4 0 Calma 5 Oeste 0 -- -- 83
2017-10-08 22:00:00 18.7 3 Oeste 6 Oeste 0 -- -- 86
2017-10-08 21:00:00 18.9 3 Sur 5 Sur 0 -- -- 87
2017-10-08 20:00:00 19.5 3 Sur 6 Oeste 0 -- -- 77
2017-10-08 19:00:00 20.4 5 Sudeste 9 Sudeste 0 -- -- 83
2017-10-08 18:00:00 22.4 5 Sudeste 13 Sudeste 0 -- -- 72
2017-10-08 17:00:00 23 7 Sudeste 16 Sudeste 0 -- -- 69
2017-10-08 16:00:00 23.8 11 Este 16 Sudeste 0 -- -- 65
2017-10-08 15:00:00 24.8 8 Sudeste 15 Este 0 -- -- 58
2017-10-08 14:00:00 24.7 9 Este 17 Este 0 -- -- 57
2017-10-08 13:00:00 24.8 11 Sudeste 17 Este 0 -- -- 51
2017-10-08 12:00:00 25.1 8 Este 15 Este 0 -- -- 53
2017-10-08 11:00:00 25.1 5 Sudeste 11 Este 0 -- -- 54
2017-10-08 10:00:00 23.7 2 Nordeste 6 Nordeste 0 -- -- 55
2017-10-08 09:00:00 20.4 4 Oeste 8 Oeste 0 -- -- 68
2017-10-08 08:00:00 19.2 2 Oeste 5 Noroeste 0 -- -- 75
2017-10-08 07:00:00 19.1 0 Calma 5 Sudoeste 0 -- -- 76
2017-10-08 06:00:00 19.3 3 Sudoeste 8 Sudoeste 0 -- -- 76
2017-10-08 05:00:00 18.8 3 Oeste 12 Sudeste 0 -- -- 82
2017-10-08 04:00:00 19 3 Sudoeste 12 Sur 0 -- -- 84
2017-10-08 03:00:00 19.4 6 Sur 12 Sudeste 0 -- -- 82
2017-10-08 02:00:00 18.7 3 Sur 6 Sudoeste 0 -- -- 86
2017-10-08 01:00:00 19.3 3 Sudeste 9 Sudeste 0 -- -- 86
2017-10-08 00:00:00 19.9 5 Sudeste 12 Sudeste 0 -- -- 84
2017-10-07 23:00:00 20.5 5 Sudeste 12 Sudeste 0 -- -- 76
2017-10-07 22:00:00 20.6 0 Calma 6 Sudoeste 0 -- -- 82
2017-10-07 21:00:00 20.1 4 Oeste 9 Oeste 0 -- -- 87
2017-10-07 20:00:00 20.3 4 Sudeste 13 Sudeste 0 -- -- 86
2017-10-07 19:00:00 20.9 5 Sudeste 27 Este 0 -- -- 85
2017-10-07 18:00:00 22.4 17 Este 25 Sudeste 0 -- -- 77
2017-10-07 17:00:00 22.9 13 Este 25 Este 0 -- -- 78
2017-10-07 16:00:00 22.5 12 Este 24 Este 0 -- -- 78
2017-10-07 15:00:00 22.9 14 Sudeste 26 Este 0 -- -- 77
2017-10-07 14:00:00 23.8 14 Este 31 Sudeste 0 -- -- 73
2017-10-07 13:00:00 24.4 16 Este 30 Sudeste 0 -- -- 69
2017-10-07 12:00:00 23.4 15 Este 31 Este 0 -- -- 72
2017-10-07 11:00:00 22.9 19 Este 30 Este 0 -- -- 75
2017-10-07 10:00:00 22.2 10 Nordeste 22 Este 0 -- -- 75
2017-10-07 09:00:00 20 3 Nordeste 11 Sudeste 0 -- -- 83
2017-10-07 08:00:00 19.1 6 Sudeste 16 Nordeste 0 -- -- 84
2017-10-07 07:00:00 19.1 8 Sudeste 16 Sudeste 0 -- -- 85
2017-10-07 06:00:00 19 5 Sudeste 15 Sudeste 0 -- -- 85
2017-10-07 05:00:00 19.2 0 Calma 14 Este 0 -- -- 82
2017-10-07 04:00:00 19.5 7 Oeste 13 Oeste 0 -- -- 82
2017-10-07 03:00:00 19 4 Sur 12 Sudeste 0 -- -- 90
2017-10-07 02:00:00 19.3 7 Sur 15 Sudeste 0 -- -- 86
2017-10-07 01:00:00 20 9 Sudeste 22 Sur 0 -- -- 85
2017-10-07 00:00:00 21.9 8 Sur 14 Sur 0 -- -- 36
2017-10-06 23:00:00 23.6 2 Sur 7 Sur 0 -- -- 31
2017-10-06 22:00:00 24.5 4 Sur 9 Sudoeste 0 -- -- 28
2017-10-06 21:00:00 24.5 3 Sur 7 Sur 0 -- -- 29
2017-10-06 20:00:00 24.6 4 Sur 6 Sur 0 -- -- 33
2017-10-06 19:00:00 25.5 2 Oeste 11 Nordeste 0 -- -- 40
2017-10-06 18:00:00 27.4 2 Nordeste 10 Sur 0 -- -- 44
2017-10-06 17:00:00 25.8 10 Sudeste 20 Sudeste 0 -- -- 62
2017-10-06 16:00:00 26.6 10 Este 18 Este 0 -- -- 60
2017-10-06 15:00:00 27.4 8 Este 18 Este 0 -- -- 55
2017-10-06 14:00:00 26.7 9 Este 16 Este 0 -- -- 58
2017-10-06 13:00:00 26.3 8 Nordeste 14 Este 0 -- -- 60
2017-10-06 12:00:00 25 5 Nordeste 10 Este 0 -- -- 62
2017-10-06 11:00:00 24.6 5 Sudeste 10 Este 0 -- -- 64
2017-10-06 10:00:00 23.3 3 Sudeste 8 Noroeste 0 -- -- 64
2017-10-06 09:00:00 19.8 0 Calma 6 Noroeste 0 -- -- 83
2017-10-06 08:00:00 18.2 3 Sudeste 6 Sur 0 -- -- 71
2017-10-06 07:00:00 18.3 4 Oeste 8 Oeste 0 -- -- 70
2017-10-06 06:00:00 19.1 0 Calma 5 Noroeste 0 -- -- 67
2017-10-06 05:00:00 18.6 0 Calma 10 Sudeste 0 -- -- 72
2017-10-06 04:00:00 18.3 4 Oeste 6 Oeste 0 -- -- 73
2017-10-06 03:00:00 18.7 2 Sudoeste 4 Sudoeste 0 -- -- 91
2017-10-06 02:00:00 18.8 0 Calma 5 Noroeste 0 -- -- 71
2017-10-06 01:00:00 19.4 3 Sur 7 Sudeste 0 -- -- 65
2017-10-06 00:00:00 20.7 3 Oeste 6 Noroeste 0 -- -- 55
2017-10-05 23:00:00 20.9 3 Noroeste 7 Noroeste 0 -- -- 58
2017-10-05 22:00:00 19.4 0 Calma 3 Noroeste 0 -- -- 86
2017-10-05 21:00:00 19.9 2 Noroeste 6 Oeste 0 -- -- 86
2017-10-05 20:00:00 20.3 4 Sur 9 Sudeste 0 -- -- 89
2017-10-05 19:00:00 21.1 6 Sudeste 12 Este 0 -- -- 86
2017-10-05 18:00:00 23 8 Este 17 Sudeste 0 -- -- 77
2017-10-05 17:00:00 24.1 7 Este 17 Este 0 -- -- 71
2017-10-05 16:00:00 23.6 9 Sudeste 24 Sudeste 0 -- -- 71
2017-10-05 15:00:00 24.4 13 Este 24 Este 0 -- -- 69
2017-10-05 14:00:00 23.7 15 Este 26 Sudeste 0 -- -- 71
2017-10-05 13:00:00 24.3 10 Este 20 Sudeste 0 -- -- 65
2017-10-05 12:00:00 24.5 10 Este 25 Sudeste 0 -- -- 59
2017-10-05 11:00:00 24.3 13 Este 22 Sudeste 0 -- -- 55
2017-10-05 10:00:00 23.7 4 Nordeste 10 Nordeste 0 -- -- 62
2017-10-05 09:00:00 20.6 5 Oeste 8 Oeste 0 -- -- 75
2017-10-05 08:00:00 19.2 3 Noroeste 5 Noroeste 0 -- -- 80
2017-10-05 07:00:00 19.1 3 Oeste 6 Sur 0 -- -- 82
2017-10-05 06:00:00 19 4 Sur 8 Sur 0 -- -- 84
2017-10-05 05:00:00 18.6 3 Sur 4 Sur 0 -- -- 86
2017-10-05 04:00:00 19 2 Sudeste 8 Sur 0 -- -- 84
2017-10-05 03:00:00 19.2 4 Sur 6 Sur 0 -- -- 85
2017-10-05 02:00:00 19.2 3 Sur 5 Este 0 -- -- 91
2017-10-05 01:00:00 19.5 0 Calma 5 Oeste 0 -- -- 92
2017-10-05 00:00:00 20.1 4 Oeste 5 Oeste 0 -- -- 92
2017-10-04 23:00:00 20.4 0 Calma 9 Sudeste 0 -- -- 94
2017-10-04 22:00:00 20.6 7 Sudeste 15 Este 0 -- -- 95
2017-10-04 21:00:00 20.8 11 Sudeste 18 Este 0 -- -- 90
2017-10-04 20:00:00 21 12 Este 21 Sudeste 0 -- -- 85
2017-10-04 19:00:00 21.4 10 Este 17 Este 0 -- -- 85
2017-10-04 18:00:00 23.6 9 Este 21 Sudeste 0 -- -- 74
2017-10-04 17:00:00 23.6 9 Este 20 Este 0 -- -- 72
2017-10-04 16:00:00 22.9 14 Este 22 Este 0 -- -- 77
2017-10-04 15:00:00 23.5 11 Este 23 Este 0 -- -- 80
2017-10-04 14:00:00 23.5 15 Este 29 Este 0 -- -- 81
2017-10-04 13:00:00 23.8 16 Este 27 Sudeste 0 -- -- 73
2017-10-04 12:00:00 24.3 12 Sudeste 21 Este 0 -- -- 66
2017-10-04 11:00:00 24.4 10 Este 16 Este 0 -- -- 67
2017-10-04 10:00:00 22.8 7 Este 14 Este 0 -- -- 74
2017-10-04 09:00:00 20.9 0 Calma 7 Norte 0 -- -- 86
2017-10-04 08:00:00 20 3 Este 6 Este 0 -- -- 89
2017-10-04 07:00:00 19.7 3 Norte 8 Oeste 0 -- -- 90
2017-10-04 06:00:00 19.4 0 Calma 6 Sur 0 -- -- 92
2017-10-04 05:00:00 19.3 0 Calma 4 Sudeste 0 -- -- 92
2017-10-04 04:00:00 19.3 2 Sur 8 Sudeste 0 -- -- 93
2017-10-04 03:00:00 19.4 0 Calma 6 Oeste 0 -- -- 93
2017-10-04 02:00:00 19.5 0 Calma 7 Sur 0 -- -- 93
2017-10-04 01:00:00 20.1 3 Sudoeste 8 Noroeste 0 -- -- 85
2017-10-04 00:00:00 20.4 5 Noroeste 7 Noroeste 0 -- -- 86
2017-10-03 23:00:00 19.9 0 Calma 5 Oeste 0 -- -- 85
2017-10-03 22:00:00 19.7 2 Sur 6 Sudeste 0 -- -- 85
2017-10-03 21:00:00 20.1 0 Calma -- -- 0 -- -- 83
2017-10-03 20:00:00 21.2 0 Calma 7 Este 0 -- -- 83
2017-10-03 19:00:00 21.7 4 Sudeste 12 Sudeste 0 -- -- 81
2017-10-03 18:00:00 22.9 8 Sudeste 14 Sudeste 0 -- -- 78
2017-10-03 17:00:00 23.9 8 Sudeste 16 Sudeste 0 -- -- 72
2017-10-03 16:00:00 23.6 10 Sudeste 18 Sudeste 0 -- -- 73
2017-10-03 15:00:00 23.8 10 Sudeste 19 Sudeste 0 -- -- 72
2017-10-03 14:00:00 23.8 12 Sudeste 20 Sudeste 0 -- -- 71
2017-10-03 13:00:00 24.6 10 Este 18 Sudeste 0 -- -- 64
2017-10-03 12:00:00 24.6 7 Este 16 Este 0 -- -- 61
2017-10-03 11:00:00 24 10 Sudeste 15 Sudeste 0 -- -- 63
2017-10-03 10:00:00 23.6 3 Sudeste 8 Este 0 -- -- 65
2017-10-03 09:00:00 21.4 0 Calma 6 Sudeste 0 -- -- 74
2017-10-03 08:00:00 19.7 3 Sudeste 9 Este 0 -- -- 78
2017-10-03 07:00:00 19.8 5 Oeste 9 Nordeste 0 -- -- 79
2017-10-03 06:00:00 18.7 0 Calma 6 Sudoeste 0 -- -- 89
2017-10-03 05:00:00 18.8 3 Sudoeste 4 Sudoeste 0 -- -- 90
2017-10-03 04:00:00 19 0 Calma 9 Sudoeste 0 -- -- 87
2017-10-03 03:00:00 19.3 6 Sur 9 Sur 0 -- -- 87
2017-10-03 02:00:00 19.9 5 Oeste 10 Oeste 0 -- -- 85
2017-10-03 01:00:00 19.3 4 Oeste 5 Oeste 0 -- -- 91
2017-10-03 00:00:00 20.1 2 Sudeste 10 Este 0 -- -- 88
2017-10-02 23:00:00 20.4 4 Este 13 Este 0 -- -- 89
2017-10-02 22:00:00 20.7 10 Este 16 Sudeste 0 -- -- 87
2017-10-02 21:00:00 20.8 8 Este 14 Este 0 -- -- 87
2017-10-02 20:00:00 21 10 Este 17 Este 0 -- -- 87
2017-10-02 19:00:00 21.3 11 Este 20 Este 0 -- -- 85
2017-10-02 18:00:00 21.8 14 Este 20 Este 0 -- -- 83
2017-10-02 17:00:00 22.3 11 Este 17 Este 0 -- -- 82
2017-10-02 16:00:00 22.8 9 Este 17 Sudeste 0 -- -- 79
2017-10-02 15:00:00 23.5 10 Sudeste 20 Este 0 -- -- 75
2017-10-02 14:00:00 23.4 13 Este 22 Este 0 -- -- 77
2017-10-02 13:00:00 23.8 13 Sudeste 22 Sudeste 0 -- -- 74
2017-10-02 12:00:00 23.2 12 Sudeste 21 Sudeste 0 -- -- 77
2017-10-02 11:00:00 23.7 10 Sudeste 17 Sudeste 0 -- -- 71
2017-10-02 10:00:00 22.9 6 Este 11 Este 0 -- -- 75
2017-10-02 09:00:00 20.4 6 Sudeste 8 Sudeste 0 -- -- 83
2017-10-02 08:00:00 19.3 5 Sur 8 Sur 0 -- -- 84
2017-10-02 07:00:00 19.1 5 Sur 7 Sur 0 -- -- 85
2017-10-02 06:00:00 19.5 3 Sudoeste 7 Sur 0 -- -- 84
2017-10-02 05:00:00 19.5 4 Oeste 7 Oeste 0 -- -- 84
2017-10-02 04:00:00 19.5 0 Calma 6 Nordeste 0 -- -- 87
2017-10-02 03:00:00 19.8 5 Sudeste 9 Este 0 -- -- 85
2017-10-02 02:00:00 20.2 0 Calma 10 Noroeste 0 -- -- 82
2017-10-02 01:00:00 20.6 0 Calma 10 Este 0 -- -- 83
2017-10-02 00:00:00 20.3 4 Este 9 Este 0 -- -- 84
2017-10-01 23:00:00 20 0 Calma 4 Oeste 0 -- -- 81
2017-10-01 22:00:00 19.8 0 Calma 6 Oeste 0 -- -- 82
2017-10-01 21:00:00 20.3 3 Sudeste 6 Sudeste 0 -- -- 77
2017-10-01 20:00:00 20.9 4 Sur 6 Sudeste 0 -- -- 71
2017-10-01 19:00:00 21.6 3 Sudeste 11 Sudeste 0 -- -- 71
2017-10-01 18:00:00 22.4 6 Sudeste 12 Sudeste 0 -- -- 71
2017-10-01 17:00:00 22.7 6 Sudeste 13 Sudeste 0 -- -- 74
2017-10-01 16:00:00 22.6 8 Sudeste 17 Sudeste 0 -- -- 75
2017-10-01 15:00:00 23.4 11 Este 21 Este 0 -- -- 69
2017-10-01 14:00:00 22.9 10 Sudeste 18 Sudeste 0 -- -- 73
2017-10-01 13:00:00 23.5 10 Este 20 Este 0 -- -- 71
2017-10-01 12:00:00 23 7 Este 21 Este 0 -- -- 71
2017-10-01 11:00:00 21.8 9 Este 14 Este 0 -- -- 77
2017-10-01 10:00:00 20.4 0 Calma 5 Este 0 -- -- 78
2017-10-01 09:00:00 19 3 Este 8 Sudeste 0 -- -- 85
2017-10-01 08:00:00 18.2 3 Este 8 Nordeste 0 -- -- 91
2017-10-01 07:00:00 18.4 0 Calma 6 Sudeste 0 -- -- 92
2017-10-01 06:00:00 18.2 0 Calma 5 Sudeste 0 -- -- 84
2017-10-01 05:00:00 18.8 0 Calma 3 Sudoeste 0 -- -- 81
2017-10-01 04:00:00 19.2 0 Calma 4 Sudeste 0 -- -- 80
2017-10-01 03:00:00 19.5 2 Sudeste 8 Oeste 0 -- -- 79
2017-10-01 02:00:00 19.4 5 Oeste 6 Oeste 0 -- -- 80
2017-10-01 01:00:00 18.8 0 Calma 3 Noroeste 0 -- -- 82
2017-10-01 00:00:00 18.9 0 Calma 4 Sudoeste 0 -- -- 81
2017-09-30 23:00:00 19 0 Calma 3 Sudoeste 0 -- -- 82
2017-09-30 22:00:00 19.3 0 Calma 4 Oeste 0 -- -- 80
2017-09-30 21:00:00 19.5 0 Calma 3 Noroeste 0 -- -- 82
2017-09-30 20:00:00 20.8 3 Norte 9 Nordeste 0 -- -- 78
2017-09-30 19:00:00 22.6 5 Este 12 Sur 0 -- -- 69
2017-09-30 18:00:00 22.5 8 Sur 15 Sur 0 -- -- 71
2017-09-30 17:00:00 23.1 8 Sur 17 Sudeste 0 -- -- 67
2017-09-30 16:00:00 23.1 13 Sudeste 19 Sudeste 0 -- -- 66
2017-09-30 15:00:00 23.6 11 Sudeste 20 Sudeste 0 -- -- 65
2017-09-30 14:00:00 23.9 11 Este 21 Sudeste 0 -- -- 66
2017-09-30 13:00:00 24 12 Sudeste 22 Sudeste 0 -- -- 66
2017-09-30 12:00:00 24.1 12 Este 18 Sudeste 0 -- -- 66
2017-09-30 11:00:00 22.6 8 Este 14 Este 0 -- -- 71
2017-09-30 10:00:00 22 4 Nordeste 7 Este 0 -- -- 73
2017-09-30 09:00:00 19.5 0 Calma 7 Oeste 0 -- -- 82
2017-09-30 08:00:00 19.5 5 Oeste 9 Oeste 0 -- -- 83
2017-09-30 07:00:00 19.2 3 Oeste 6 Oeste 0 -- -- 85
2017-09-30 06:00:00 19.1 3 Oeste 6 Oeste 0 -- -- 87
2017-09-30 05:00:00 18.7 2 Oeste 4 Oeste 0 -- -- 89
2017-09-30 04:00:00 18.5 3 Sudoeste 4 Sudoeste 0 -- -- 89
2017-09-30 03:00:00 18.9 2 Sur 9 Sur 0 -- -- 87
2017-09-30 02:00:00 19.3 6 Sur 9 Oeste 0 -- -- 85
2017-09-30 01:00:00 20 3 Oeste 5 Sudeste 0 -- -- 82
2017-09-30 00:00:00 20.7 3 Sur 9 Sur 0 -- -- 80
2017-09-29 23:00:00 20.9 4 Sudeste 6 Sudeste 0 -- -- 78
2017-09-29 22:00:00 21 4 Este 7 Este 0 -- -- 75
2017-09-29 21:00:00 21 2 Sudeste 5 Este 0 -- -- 72
2017-09-29 20:00:00 21.2 0 Calma 9 Sudeste 0 -- -- 78
2017-09-29 19:00:00 22.1 5 Este 14 Este 0 -- -- 77
2017-09-29 18:00:00 22.6 7 Sudeste 18 Sudeste 0 -- -- 76
2017-09-29 17:00:00 23.2 9 Sudeste 21 Sudeste 0 -- -- 71
2017-09-29 16:00:00 24 13 Este 19 Sudeste 0 -- -- 65
2017-09-29 15:00:00 23.6 13 Sudeste 22 Sudeste 0 -- -- 60
2017-09-29 14:00:00 24.4 15 Sudeste 23 Sudeste 0 -- -- 59
2017-09-29 13:00:00 24.6 12 Sudeste 27 Sudeste 0 -- -- 56
2017-09-29 12:00:00 24.4 11 Sur 22 Sudeste 0 -- -- 58
2017-09-29 11:00:00 24.2 7 Sur 20 Sudeste 0 -- -- 61
2017-09-29 10:00:00 23.4 4 Este 7 Nordeste 0 -- -- 65
2017-09-29 09:00:00 20.8 3 Sudeste 12 Sudoeste 0 -- -- 74
2017-09-29 08:00:00 19.8 8 Sudoeste 18 Oeste 0 -- -- 75
2017-09-29 07:00:00 20.2 13 Sudoeste 18 Oeste 0 -- -- 79
2017-09-29 06:00:00 19.6 2 Sur 11 Oeste 0 -- -- 81
2017-09-29 05:00:00 19.5 8 Oeste 11 Sudoeste 0 -- -- 83
2017-09-29 04:00:00 19.7 8 Sur 13 Sur 0 -- -- 82
2017-09-29 03:00:00 20 0 Calma 25 Este 0 -- -- 83
2017-09-29 02:00:00 20.6 18 Sudeste 27 Este 0 -- -- 82
2017-09-29 01:00:00 20.7 9 Sudeste 16 Este 0 -- -- 83
2017-09-29 00:00:00 20.7 6 Sudeste 13 Sudeste 0 -- -- 83
2017-09-28 23:00:00 20.7 7 Sudeste 15 Sudeste 0 -- -- 82
2017-09-28 22:00:00 20.6 5 Sur 10 Sur 0 -- -- 83
2017-09-28 21:00:00 21.1 5 Sur 11 Sur 0 -- -- 83
2017-09-28 20:00:00 21.3 7 Sur 13 Sudeste 0 -- -- 83
2017-09-28 19:00:00 21.8 6 Este 18 Este 0 -- -- 81
2017-09-28 18:00:00 23.1 13 Sudeste 24 Sudeste 0 -- -- 76
2017-09-28 17:00:00 24 13 Este 23 Este 0 -- -- 69
2017-09-28 16:00:00 23.9 10 Este 28 Este 0 -- -- 72
2017-09-28 15:00:00 24.1 15 Este 31 Este 0 -- -- 68
2017-09-28 14:00:00 23.6 13 Este 21 Sudeste 0 -- -- 70
2017-09-28 13:00:00 23.3 11 Este 18 Este 0 -- -- 66
2017-09-28 12:00:00 23.1 7 Este 14 Sudeste 0 -- -- 67
2017-09-28 11:00:00 23.3 3 Este 11 Este 0 -- -- 71
2017-09-28 10:00:00 21.6 4 Sudeste 10 Sudeste 0 -- -- 76
2017-09-28 09:00:00 20.5 4 Sur 10 Sur 0 -- -- 81
2017-09-28 08:00:00 20.5 3 Sur 9 Oeste 0.2 -- -- 78
2017-09-28 07:00:00 20.7 2 Sudeste 16 Sudeste 0.2 -- -- 84
2017-09-28 06:00:00 21 3 Nordeste 9 Nordeste 0 -- -- 83
2017-09-28 05:00:00 20.9 3 Sur 9 Sur 0 -- -- 87
2017-09-28 04:00:00 20.9 2 Sudeste 7 Sudoeste 0 -- -- 88
2017-09-28 03:00:00 20.7 3 Sur 10 Sudeste 0 -- -- 92
2017-09-28 02:00:00 20.5 3 Sudeste 5 Sudeste 0 -- -- 89
2017-09-28 01:00:00 20.7 2 Sur 9 Sudeste 0 -- -- 89
2017-09-28 00:00:00 20.9 4 Sudeste 10 Este 0 -- -- 88
2017-09-27 23:00:00 21 0 Calma 6 Sur 0 -- -- 88
2017-09-27 22:00:00 20.9 5 Sur 9 Sudeste 0 -- -- 92
2017-09-27 21:00:00 21 6 Sudeste 12 Sudeste 0 -- -- 92
2017-09-27 20:00:00 21.2 7 Sudeste 20 Este 0 -- -- 89
2017-09-27 19:00:00 21.8 14 Este 21 Este 0 -- -- 86
2017-09-27 18:00:00 22 10 Este 22 Este 0 -- -- 89
2017-09-27 17:00:00 22.2 14 Este 25 Este 0 -- -- 89
2017-09-27 16:00:00 22.2 17 Este 23 Este 0 -- -- 84
2017-09-27 15:00:00 23.1 7 Este 15 Sudeste 0 -- -- 77
2017-09-27 14:00:00 23.4 9 Sudeste 19 Sudeste 0 -- -- 71
2017-09-27 13:00:00 25.2 12 Sudeste 19 Este 0 -- -- 63
2017-09-27 12:00:00 24.5 7 Sudeste 15 Este 0 -- -- 64
2017-09-27 11:00:00 24.1 5 Este 12 Nordeste 0 -- -- 67
2017-09-27 10:00:00 22.6 4 Sudeste 7 Sudeste 0 -- -- 74
2017-09-27 09:00:00 20.3 2 Noroeste 5 Sudoeste 0 -- -- 84
2017-09-27 08:00:00 20.1 5 Sudeste 8 Sudeste 0 -- -- 85
2017-09-27 07:00:00 20.2 5 Sur 9 Sur 0 -- -- 84
2017-09-27 06:00:00 20.5 2 Sur 7 Norte 0 -- -- 88
2017-09-27 05:00:00 20.6 0 Calma 12 Este 0 -- -- 89
2017-09-27 04:00:00 20.1 3 Sudeste 11 Este 0 -- -- 91
2017-09-27 03:00:00 20.6 4 Este 16 Este 0 -- -- 92
2017-09-27 02:00:00 20.9 6 Este 11 Sudeste 0 -- -- 94
2017-09-27 01:00:00 20.5 4 Oeste 8 Oeste 0 -- -- 89
2017-09-27 00:00:00 20.4 4 Oeste 7 Oeste 0 -- -- 91
2017-09-26 23:00:00 20.6 2 Sur 7 Sudeste 0 -- -- 93
2017-09-26 22:00:00 21.1 0 Calma 5 Este 0 -- -- 91
2017-09-26 21:00:00 21.3 3 Sudeste 8 Sudeste 0 -- -- 89
2017-09-26 20:00:00 21.7 7 Este 12 Este 0 -- -- 88
2017-09-26 19:00:00 22.7 6 Nordeste 12 Nordeste 0 -- -- 86
2017-09-26 18:00:00 22.9 8 Sudeste 15 Este 0 -- -- 84
2017-09-26 17:00:00 23.7 8 Este 18 Este 0 -- -- 80
2017-09-26 16:00:00 24.2 9 Este 22 Este 0 -- -- 77
2017-09-26 15:00:00 25.1 9 Sudeste 22 Sudeste 0 -- -- 73
2017-09-26 14:00:00 25.1 8 Sudeste 22 Sudeste 0 -- -- 72
2017-09-26 13:00:00 24.9 9 Sudeste 21 Sudeste 0 -- -- 69
2017-09-26 12:00:00 24.6 8 Sudeste 16 Sudeste 0 -- -- 69
2017-09-26 11:00:00 24.1 6 Sudeste 18 Este 0 -- -- 65
2017-09-26 10:00:00 19.2 3 Sudoeste 9 Noroeste 0 -- -- 96
2017-09-26 09:00:00 18.5 5 Sur 13 Sur 0 -- -- 95
2017-09-26 08:00:00 20.1 0 Calma 10 Oeste 0 -- -- 72
2017-09-26 07:00:00 17.4 2 Sur 6 Sur 0 -- -- 96
2017-09-26 06:00:00 17.9 3 Sur 8 Sudeste 0 -- -- 95
2017-09-26 05:00:00 17.9 0 Calma 6 Noroeste 0 -- -- 88
2017-09-26 04:00:00 18.2 5 Sur 7 Sur 0 -- -- 96
2017-09-26 03:00:00 18.5 3 Sur 8 Sur 0 -- -- 96
2017-09-26 02:00:00 18.2 3 Oeste 11 Sur 0 -- -- 92
2017-09-26 01:00:00 18.8 3 Oeste 6 Oeste 0 -- -- 89
2017-09-26 00:00:00 19.5 4 Sudeste 14 Sur 0 -- -- 85
2017-09-25 23:00:00 19.5 10 Sur 13 Sur 0 -- -- 90
2017-09-25 22:00:00 19.9 2 Sur 13 Sudeste 0 -- -- 88
2017-09-25 21:00:00 20.5 3 Sudeste 6 Oeste 0 -- -- 81
2017-09-25 20:00:00 21.4 0 Calma 9 Sudeste 0 -- -- 81
2017-09-25 19:00:00 22.6 3 Sudeste 15 Sudeste 0 -- -- 77
2017-09-25 18:00:00 23.5 13 Sudeste 21 Este 0 -- -- 73
2017-09-25 17:00:00 26.2 12 Este 19 Este 0 -- -- 63
2017-09-25 16:00:00 26.8 8 Nordeste 18 Este 0 -- -- 60
2017-09-25 15:00:00 26.6 10 Este 18 Este 0 -- -- 59
2017-09-25 14:00:00 26.5 9 Este 19 Este 0 -- -- 58
2017-09-25 13:00:00 26.2 10 Este 18 Este 0 -- -- 53
2017-09-25 12:00:00 25.6 8 Nordeste 18 Este 0 -- -- 60
2017-09-25 11:00:00 24.5 9 Este 14 Este 0 -- -- 61
2017-09-25 10:00:00 23.6 2 Sudeste 5 Nordeste 0 -- -- 52
2017-09-25 09:00:00 21.1 0 Calma 5 Sur 0 -- -- 55
2017-09-25 08:00:00 19.2 6 Oeste 8 Oeste 0 -- -- 56
2017-09-25 07:00:00 19.2 2 Sudeste 5 Sudoeste 0 -- -- 53
2017-09-25 06:00:00 21.2 4 Oeste 8 Oeste 0 -- -- 45
2017-09-25 05:00:00 19.5 2 Oeste 5 Oeste 0 -- -- 59
2017-09-25 04:00:00 19 0 Calma 5 Sur 0 -- -- 67
2017-09-25 03:00:00 19 2 Oeste 6 Oeste 0 -- -- 63
2017-09-25 02:00:00 19 4 Oeste 7 Sur 0 -- -- 75
2017-09-25 01:00:00 18.7 3 Sur 6 Sur 0 -- -- 82
2017-09-25 00:00:00 19.1 0 Calma 5 Sudoeste 0 -- -- 87
2017-09-24 23:00:00 19.5 4 Oeste 5 Oeste 0 -- -- 86
2017-09-24 22:00:00 19.8 0 Calma 6 Oeste 0 -- -- 87
2017-09-24 21:00:00 20.4 4 Oeste 6 Oeste 0 -- -- 86
2017-09-24 20:00:00 21.5 0 Calma 9 Sudeste 0 -- -- 80
2017-09-24 19:00:00 22.8 5 Sudeste 14 Este 0 -- -- 75
2017-09-24 18:00:00 23.8 10 Sudeste 18 Este 0 -- -- 73
2017-09-24 17:00:00 24.5 13 Sudeste 19 Este 0 -- -- 68
2017-09-24 16:00:00 25.1 12 Sudeste 18 Sudeste 0 -- -- 63
2017-09-24 15:00:00 25 8 Sudeste 20 Sudeste 0 -- -- 65
2017-09-24 14:00:00 24.3 13 Sudeste 21 Sudeste 0 -- -- 66
2017-09-24 13:00:00 26.1 8 Este 18 Este 0 -- -- 57
2017-09-24 12:00:00 25.8 10 Este 17 Este 0 -- -- 59
2017-09-24 11:00:00 25.2 10 Este 18 Este 0 -- -- 62
2017-09-24 10:00:00 23.9 6 Nordeste 12 Nordeste 0 -- -- 66
2017-09-24 09:00:00 21.3 0 Calma 12 Oeste 0 -- -- 76
2017-09-24 08:00:00 19.2 8 Oeste 14 Noroeste 0 -- -- 84
2017-09-24 07:00:00 19.3 3 Oeste 8 Oeste 0 -- -- 86
2017-09-24 06:00:00 18.9 5 Oeste 6 Oeste 0 -- -- 89
2017-09-24 05:00:00 19 3 Sudoeste 6 Oeste 0 -- -- 87
2017-09-24 04:00:00 19.3 0 Calma 5 Sudeste 0 -- -- 86
2017-09-24 03:00:00 19.6 2 Sur 5 Sudeste 0 -- -- 85
2017-09-24 02:00:00 19.9 3 Oeste 8 Oeste 0 -- -- 85
2017-09-24 01:00:00 19.8 2 Sur 4 Sur 0 -- -- 86
2017-09-24 00:00:00 20 0 Calma 6 Sudeste 0 -- -- 82
2017-09-23 23:00:00 20.2 3 Sur 9 Sur 0 -- -- 82
2017-09-23 22:00:00 20.6 6 Sudeste 9 Sudeste 0 -- -- 80
2017-09-23 21:00:00 20.7 0 Calma 10 Sudeste 0 -- -- 79
2017-09-23 20:00:00 21.5 0 Calma 8 Nordeste 0 -- -- 76
2017-09-23 19:00:00 22.8 2 Sudeste 14 Este 0 -- -- 71
2017-09-23 18:00:00 23.8 8 Este 20 Sudeste 0 -- -- 68
2017-09-23 17:00:00 24.4 9 Este 16 Este 0 -- -- 64
2017-09-23 16:00:00 25 7 Sudeste 22 Sudeste 0 -- -- 64
2017-09-23 15:00:00 24.9 13 Este 27 Este 0 -- -- 60
2017-09-23 14:00:00 25.1 13 Este 26 Sudeste 0 -- -- 57
2017-09-23 13:00:00 25.1 18 Sudeste 27 Sudeste 0 -- -- 52
2017-09-23 12:00:00 25.6 18 Este 24 Este 0 -- -- 53
2017-09-23 11:00:00 23.7 7 Este 14 Este 0 -- -- 60
2017-09-23 10:00:00 21.4 9 Este 12 Sudeste 0 -- -- 77
2017-09-23 09:00:00 20 4 Sudoeste 6 Sur 0 -- -- 78
2017-09-23 08:00:00 19.4 6 Sudoeste 13 Sudoeste 0 -- -- 77
2017-09-23 07:00:00 19.3 7 Sudoeste 12 Sudoeste 0 -- -- 81
2017-09-23 06:00:00 19.9 5 Sur 11 Sudoeste 0 -- -- 76
2017-09-23 05:00:00 19.7 2 Sur 12 Sudoeste 0 -- -- 78
2017-09-23 04:00:00 19.9 5 Oeste 9 Oeste 0 -- -- 79
2017-09-23 03:00:00 20.3 3 Sudoeste 14 Sudeste 0 -- -- 81
2017-09-23 02:00:00 21.2 8 Sudeste 18 Sudeste 0 -- -- 80
2017-09-23 01:00:00 21.1 6 Sudeste 14 Sudeste 0 -- -- 83
2017-09-23 00:00:00 21 4 Sur 17 Sudeste 0 -- -- 85